📊 Raw Sensor Data

Showing records 36926 to 36950 of 84,905 total

ID Distance (ft) Battery V Battery A Int Temp (°F) Int Humid (%) Ext Temp (°F) Solar V RSSI SNR Time Stamp
47992 15.6 3.98 5 89 54 82 4.50 -69 7 08/01/2025 07:30 PM
47991 15.7 3.99 10 92 54 83 4.60 -69 8 08/01/2025 07:15 PM
47990 15.7 4.03 5 95 53 87 4.60 -69 8 08/01/2025 07:00 PM
47989 15.7 4.08 27 97 52 89 4.50 -69 7 08/01/2025 06:45 PM
47988 15.7 4.04 5 99 52 88 5.10 -69 8 08/01/2025 06:30 PM
47987 15.7 3.94 5 100 51 91 5.10 -70 8 08/01/2025 06:15 PM
47986 15.7 3.94 5 103 50 92 5.10 -70 8 08/01/2025 06:00 PM
47985 15.8 3.94 5 104 48 94 5.10 -71 8 08/01/2025 05:45 PM
47984 15.7 3.95 5 105 48 95 5.10 -71 8 08/01/2025 05:30 PM
47983 15.7 3.94 5 105 46 95 5.10 -68 7 08/01/2025 05:00 PM
47982 15.7 3.94 5 105 46 95 5.10 -69 8 08/01/2025 04:45 PM
47981 15.8 3.95 5 105 45 96 5.10 -68 7 08/01/2025 04:30 PM
47980 15.7 4.00 5 105 45 94 5.10 -69 8 08/01/2025 04:15 PM
47979 15.7 3.94 0 104 45 93 5.10 -68 8 08/01/2025 04:00 PM
47978 15.7 3.94 0 105 44 95 5.10 -69 8 08/01/2025 03:45 PM
47977 15.7 4.02 0 104 43 93 5.10 -71 8 08/01/2025 03:30 PM
47976 15.7 4.02 5 105 42 95 5.10 -70 8 08/01/2025 03:15 PM
47975 15.7 3.94 6 103 42 93 5.10 -70 8 08/01/2025 03:00 PM
47974 15.7 3.94 0 102 41 94 5.20 -69 7 08/01/2025 02:45 PM
47973 15.7 3.94 5 100 41 93 5.20 -71 7 08/01/2025 02:30 PM
47972 15.7 3.94 5 98 41 91 5.10 -70 7 08/01/2025 02:15 PM
47971 15.7 4.01 5 97 41 89 5.10 -71 7 08/01/2025 02:00 PM
47970 15.7 4.12 5 95 41 88 5.10 -69 8 08/01/2025 01:45 PM
47969 15.7 3.94 5 93 42 87 5.10 -70 7 08/01/2025 01:30 PM
47968 15.6 3.94 0 91 42 86 5.10 -69 8 08/01/2025 01:15 PM